Time;durP1;ratioP1;P1;durP2;ratioP2;P2;SDS_P1;SDS_P2;PMS_P1;PMS_P2;Temp;Humidity;BMP_temperature;BMP_pressure;BME280_temperature;BME280_humidity;BME280_pressure;Samples;Min_cycle;Max_cycle;Signal;HPM_P1;HPM_P2
2022/07/23 00:02:18;;;;;;;8.60;7.70;;;;;;;24.17;55.66;94097.22;5046900;28;20252;-55
2022/07/23 00:05:03;;;;;;;8.55;7.65;;;;;;;24.03;56.53;94104.72;5052696;28;20256;-55
2022/07/23 00:07:47;;;;;;;8.88;8.00;;;;;;;23.87;57.02;94110.06;5040094;28;20286;-55
2022/07/23 00:10:31;;;;;;;9.13;8.10;;;;;;;23.78;57.56;94106.28;5045122;28;20573;-55
2022/07/23 00:13:15;;;;;;;8.05;7.35;;;;;;;23.77;57.67;94111.25;5047864;28;20229;-55
2022/07/23 00:15:59;;;;;;;7.70;6.80;;;;;;;23.78;58.28;94109.13;5042522;28;20645;-55
2022/07/23 00:18:42;;;;;;;8.50;7.13;;;;;;;23.79;57.52;94107.72;5051709;28;20667;-55
2022/07/23 00:21:27;;;;;;;8.02;7.22;;;;;;;23.84;57.57;94105.69;5046154;28;20229;-55
2022/07/23 00:24:10;;;;;;;7.90;7.13;;;;;;;23.76;57.75;94118.38;5041212;28;20691;-55
2022/07/23 00:26:54;;;;;;;7.72;6.93;;;;;;;23.77;57.68;94137.03;5050402;28;20282;-55
2022/07/23 00:29:38;;;;;;;8.02;6.78;;;;;;;23.74;57.98;94151.97;5051620;28;20682;-55
2022/07/23 00:32:22;;;;;;;10.68;6.80;;;;;;;23.67;58.49;94151.09;5047084;28;20194;-55
2022/07/23 00:35:06;;;;;;;7.57;6.90;;;;;;;23.63;58.73;94150.97;5052392;28;20221;-55
2022/07/23 00:37:51;;;;;;;7.95;7.15;;;;;;;23.50;59.30;94160.66;5046688;28;20563;-55
2022/07/23 00:40:35;;;;;;;8.15;7.30;;;;;;;23.51;59.00;94173.56;5051367;28;20213;-55
2022/07/23 00:43:21;;;;;;;7.97;7.18;;;;;;;23.80;57.30;94197.91;5048398;28;20237;-55
2022/07/23 00:46:06;;;;;;;7.45;6.75;;;;;;;24.34;55.21;94218.63;5049047;28;20232;-55
2022/07/23 00:48:49;;;;;;;7.72;6.85;;;;;;;24.70;54.63;94252.41;5034778;28;20230;-55
2022/07/23 00:51:33;;;;;;;9.32;7.00;;;;;;;24.63;54.82;94279.50;5031019;28;20233;-55
2022/07/23 00:54:18;;;;;;;8.95;7.47;;;;;;;24.62;55.68;94289.50;5045120;28;20725;-55
2022/07/23 00:57:03;;;;;;;7.82;6.30;;;;;;;24.50;51.34;94324.31;5049271;28;20567;-56
2022/07/23 00:59:47;;;;;;;6.95;5.90;;;;;;;23.89;51.83;94311.19;5039156;28;20210;-56
2022/07/23 01:02:31;;;;;;;16.88;5.95;;;;;;;23.57;52.06;94311.03;5042720;28;20272;-56
2022/07/23 01:05:15;;;;;;;10.30;6.60;;;;;;;21.05;69.26;94326.69;5049557;28;20267;-55
2022/07/23 01:08:00;;;;;;;14.23;7.15;;;;;;;18.27;100.00;94325.06;5047998;28;20221;-56
2022/07/23 01:10:44;;;;;;;9.93;7.43;;;;;;;17.79;100.00;94337.56;5050008;28;20205;-55
2022/07/23 01:13:28;;;;;;;8.33;6.40;;;;;;;17.23;100.00;94313.41;5044662;28;20583;-55
2022/07/23 01:16:12;;;;;;;10.33;7.57;;;;;;;17.46;100.00;94335.16;5048111;28;20315;-55
2022/07/23 01:18:57;;;;;;;10.27;7.20;;;;;;;17.57;100.00;94316.56;5041660;28;20703;-55
2022/07/23 01:21:43;;;;;;;10.30;7.87;;;;;;;17.61;100.00;94299.78;5042471;28;20221;-55
2022/07/23 01:24:28;;;;;;;14.70;8.40;;;;;;;17.65;100.00;94274.50;5050155;28;20845;-56
2022/07/23 01:27:19;;;;;;;13.10;9.03;;;;;;;17.95;100.00;94246.94;5059061;28;20201;-56
2022/07/23 01:30:05;;;;;;;9.53;8.17;;;;;;;18.10;100.00;94229.22;5047254;28;20256;-55
2022/07/23 01:32:49;;;;;;;13.33;8.23;;;;;;;18.27;100.00;94227.91;5046562;28;20682;-56
2022/07/23 01:35:33;;;;;;;9.63;8.27;;;;;;;18.28;100.00;94240.72;5042992;28;20197;-55
2022/07/23 01:38:21;;;;;;;10.07;7.90;;;;;;;18.77;100.00;94218.91;5049430;28;20205;-56
2022/07/23 01:41:05;;;;;;;10.83;9.00;;;;;;;18.97;95.63;94202.06;5051365;28;20264;-55
2022/07/23 01:43:49;;;;;;;13.40;9.10;;;;;;;18.89;94.72;94173.31;5051373;28;20205;-55
2022/07/23 01:46:33;;;;;;;11.37;8.77;;;;;;;18.75;94.91;94162.06;5046323;28;20205;-55
2022/07/23 01:49:18;;;;;;;11.17;8.10;;;;;;;18.60;96.60;94168.47;5047460;28;20267;-55
2022/07/23 01:52:22;;;;;;;9.63;8.43;;;;;;;18.74;96.80;94180.47;5048890;28;20679;-55
2022/07/23 01:55:08;;;;;;;14.13;10.43;;;;;;;18.97;94.84;94191.44;5047237;28;20237;-55
2022/07/23 01:57:53;;;;;;;8.80;7.17;;;;;;;19.10;88.61;94186.28;5047601;28;20209;-55
2022/07/23 02:00:40;;;;;;;8.00;6.33;;;;;;;19.08;86.94;94172.00;5050046;28;20721;-55
2022/07/23 02:03:25;;;;;;;7.37;5.17;;;;;;;19.20;86.40;94181.03;5045058;28;20233;-56
2022/07/23 02:06:09;;;;;;;5.70;4.83;;;;;;;19.15;86.52;94170.88;5048536;28;20206;-55
2022/07/23 02:08:53;;;;;;;6.40;5.10;;;;;;;19.22;87.56;94164.09;5048416;28;20236;-56
2022/07/23 02:11:40;;;;;;;6.80;5.47;;;;;;;19.16;86.77;94167.41;5049317;28;20463;-56
2022/07/23 02:14:26;;;;;;;6.17;5.00;;;;;;;19.24;87.51;94161.34;5038857;28;20233;-56
2022/07/23 02:17:10;;;;;;;5.17;4.67;;;;;;;19.35;88.31;94166.09;5043952;28;20686;-56
2022/07/23 02:19:54;;;;;;;6.40;5.27;;;;;;;19.54;87.26;94171.19;5046774;28;20283;-55
2022/07/23 02:22:40;;;;;;;5.63;5.13;;;;;;;19.68;88.63;94210.84;5048006;28;20771;-56
2022/07/23 02:25:24;;;;;;;5.93;4.40;;;;;;;19.68;83.47;94234.34;5044938;28;20569;-56
2022/07/23 02:28:13;;;;;;;5.87;5.07;;;;;;;19.71;82.59;94261.47;5050894;28;20220;-56
2022/07/23 02:30:59;;;;;;;7.00;5.50;;;;;;;19.74;83.93;94282.19;5046608;28;20280;-56
2022/07/23 02:33:43;;;;;;;8.23;6.77;;;;;;;19.72;85.42;94265.78;5053591;28;20221;-56
2022/07/23 02:36:27;;;;;;;7.27;6.20;;;;;;;19.73;84.18;94267.25;5052137;28;20324;-56
2022/07/23 02:39:11;;;;;;;7.87;5.47;;;;;;;19.87;83.70;94269.22;5054506;28;20197;-56
2022/07/23 02:41:56;;;;;;;5.10;4.60;;;;;;;19.93;84.19;94272.31;5049538;28;20229;-56
2022/07/23 02:44:41;;;;;;;6.53;4.53;;;;;;;20.00;80.35;94265.47;5043111;28;20205;-56
2022/07/23 02:47:25;;;;;;;5.57;3.77;;;;;;;19.98;79.41;94273.94;5053307;28;20208;-56
2022/07/23 02:50:09;;;;;;;4.33;3.93;;;;;;;19.99;77.17;94261.19;5052358;28;20236;-56
2022/07/23 02:52:53;;;;;;;3.50;3.20;;;;;;;20.01;76.59;94256.31;5049980;28;20197;-56
2022/07/23 02:55:37;;;;;;;3.83;3.43;;;;;;;20.17;73.14;94256.25;5051064;28;20210;-56
2022/07/23 02:58:21;;;;;;;3.17;2.87;;;;;;;20.19;72.36;94259.16;5052470;28;20221;-56
2022/07/23 03:01:05;;;;;;;3.40;3.10;;;;;;;20.25;71.05;94259.41;5062569;28;20221;-56
2022/07/23 03:03:49;;;;;;;6.00;2.97;;;;;;;20.27;69.33;94248.13;5053175;28;20256;-56
2022/07/23 03:06:33;;;;;;;4.27;3.43;;;;;;;20.33;69.35;94241.97;5051563;28;20198;-56
2022/07/23 03:09:17;;;;;;;4.13;3.40;;;;;;;20.25;67.79;94205.34;5052517;28;20690;-56
2022/07/23 03:12:02;;;;;;;4.53;3.90;;;;;;;20.47;67.83;94180.63;5057993;28;20623;-56
2022/07/23 03:14:47;;;;;;;8.90;4.67;;;;;;;20.57;67.06;94166.78;5057193;28;20252;-56
2022/07/23 03:17:31;;;;;;;9.07;4.37;;;;;;;20.52;68.00;94148.09;5052440;28;20210;-56
2022/07/23 03:20:15;;;;;;;6.57;3.83;;;;;;;20.41;67.52;94114.94;5054175;28;20202;-56
2022/07/23 03:22:58;;;;;;;6.23;4.53;;;;;;;20.47;67.43;94095.25;5052568;28;20229;-56
2022/07/23 03:25:42;;;;;;;4.67;4.27;;;;;;;20.11;67.35;94088.16;5050350;28;20201;-56
2022/07/23 03:28:26;;;;;;;4.60;4.20;;;;;;;20.25;67.33;94091.50;5045700;28;20248;-56
2022/07/23 03:31:10;;;;;;;4.67;4.27;;;;;;;20.15;66.78;94088.28;5055458;28;20617;-56
2022/07/23 03:33:58;;;;;;;4.50;4.10;;;;;;;20.26;67.73;94087.28;5050407;28;20621;-56
2022/07/23 03:36:42;;;;;;;7.87;4.13;;;;;;;20.27;66.45;94083.06;5047162;28;20253;-56
2022/07/23 03:39:26;;;;;;;5.23;4.10;;;;;;;20.28;65.89;94072.41;5049708;28;20324;-56
2022/07/23 03:42:10;;;;;;;4.23;3.80;;;;;;;20.20;65.61;94064.31;5050941;28;20238;-56
2022/07/23 03:44:54;;;;;;;4.13;3.50;;;;;;;20.16;64.82;94059.19;5046102;28;20205;-56
2022/07/23 03:47:39;;;;;;;4.10;3.80;;;;;;;20.25;65.57;94057.38;5045512;28;20225;-56
2022/07/23 03:50:24;;;;;;;4.43;4.00;;;;;;;20.24;64.97;94061.63;5052765;28;20721;-56
2022/07/23 03:53:09;;;;;;;4.77;3.60;;;;;;;20.34;64.06;94078.38;5049620;28;20834;-56
2022/07/23 03:55:53;;;;;;;4.67;4.17;;;;;;;20.25;64.57;94105.75;5051701;28;20206;-56
2022/07/23 03:58:37;;;;;;;5.23;4.20;;;;;;;20.28;63.05;94101.59;5049250;28;20213;-56
2022/07/23 04:01:20;;;;;;;4.23;3.83;;;;;;;20.26;63.63;94107.22;5055417;28;20217;-57
2022/07/23 04:04:04;;;;;;;5.63;4.40;;;;;;;20.25;65.06;94114.28;5047979;28;20257;-56
2022/07/23 04:06:48;;;;;;;4.27;3.87;;;;;;;20.29;64.82;94108.75;5059491;28;20204;-56
2022/07/23 04:09:34;;;;;;;6.97;4.17;;;;;;;20.43;63.12;94097.91;5050158;28;20213;-56
2022/07/23 04:12:18;;;;;;;4.07;3.70;;;;;;;20.55;63.66;94095.53;5043803;28;20253;-56
2022/07/23 04:15:03;;;;;;;8.57;3.77;;;;;;;20.59;64.83;94086.41;5049614;28;20205;-56
2022/07/23 04:17:47;;;;;;;5.27;4.53;;;;;;;20.52;65.11;94093.25;5048358;28;20576;-56
2022/07/23 04:20:34;;;;;;;4.50;4.10;;;;;;;20.43;65.81;94083.69;5060298;28;20341;-56
2022/07/23 04:23:20;;;;;;;4.47;4.17;;;;;;;20.41;65.83;94086.47;5045583;28;20201;-57
2022/07/23 04:26:04;;;;;;;5.20;4.70;;;;;;;20.65;64.28;94092.34;5048495;28;20282;-56
2022/07/23 04:28:49;;;;;;;5.90;4.23;;;;;;;20.69;63.80;94092.47;5047527;28;20256;-56
2022/07/23 04:31:34;;;;;;;4.90;4.40;;;;;;;20.79;63.93;94089.28;5056767;28;20189;-56
2022/07/23 04:34:18;;;;;;;5.67;4.67;;;;;;;20.77;65.28;94083.50;5050351;28;20229;-56
2022/07/23 04:37:02;;;;;;;4.40;4.00;;;;;;;20.86;65.21;94088.81;5050707;28;20267;-56
2022/07/23 04:39:49;;;;;;;5.70;4.43;;;;;;;20.88;67.40;94076.75;5049446;28;20797;-56
2022/07/23 04:42:33;;;;;;;5.10;4.60;;;;;;;21.13;64.45;94064.81;5040202;28;20217;-57
2022/07/23 04:45:17;;;;;;;5.30;4.80;;;;;;;21.26;63.55;94061.03;5046316;28;20680;-56
2022/07/23 04:48:02;;;;;;;5.87;4.93;;;;;;;21.23;63.10;94061.63;5047025;28;20710;-56
2022/07/23 04:50:47;;;;;;;5.30;4.80;;;;;;;21.14;63.90;94060.59;5051719;28;20202;-56
2022/07/23 04:53:40;;;;;;;5.30;4.73;;;;;;;21.18;64.03;94065.72;5052520;28;20214;-56
2022/07/23 04:56:24;;;;;;;5.07;4.67;;;;;;;21.32;64.31;94071.91;5048382;28;20220;-56
2022/07/23 04:59:08;;;;;;;6.57;5.10;;;;;;;21.38;65.09;94072.84;5044008;28;20248;-56
2022/07/23 05:01:52;;;;;;;7.13;4.37;;;;;;;21.38;65.12;94072.84;5044592;28;20232;-56
2022/07/23 05:04:38;;;;;;;8.90;4.85;;;;;;;21.46;64.80;94083.78;5051104;28;20225;-56
2022/07/23 05:07:22;;;;;;;6.43;5.30;;;;;;;21.37;64.07;94076.34;5043097;28;20333;-56
2022/07/23 05:10:08;;;;;;;6.35;5.57;;;;;;;21.45;64.10;94078.72;5046125;28;20201;-56
2022/07/23 05:12:52;;;;;;;5.82;5.22;;;;;;;21.46;66.15;94071.66;5049111;28;20574;-56
2022/07/23 05:15:36;;;;;;;8.48;5.82;;;;;;;21.57;65.71;94070.56;5046327;28;20205;-57
2022/07/23 05:18:20;;;;;;;5.35;4.85;;;;;;;21.52;65.39;94075.44;5042955;28;20212;-57
2022/07/23 05:21:05;;;;;;;5.40;4.90;;;;;;;21.60;64.42;94086.38;5049566;28;20201;-57
2022/07/23 05:23:49;;;;;;;4.72;4.32;;;;;;;21.53;62.80;94107.53;5050136;28;20205;-57
2022/07/23 05:26:33;;;;;;;151.35;86.97;;;;;;;21.32;64.86;94118.22;5051245;28;20585;-57
2022/07/23 05:29:17;;;;;;;29.17;18.10;;;;;;;21.45;65.12;94127.19;5046520;28;20205;-57
2022/07/23 05:32:01;;;;;;;18.57;15.20;;;;;;;21.44;65.98;94137.88;5048559;28;20197;-57
2022/07/23 05:34:47;;;;;;;24.60;12.95;;;;;;;21.41;67.31;94144.91;5053111;28;20236;-57
2022/07/23 05:37:32;;;;;;;10.03;8.27;;;;;;;21.32;67.49;94138.19;5042812;28;20291;-57
2022/07/23 05:40:16;;;;;;;68.68;50.72;;;;;;;21.31;67.44;94139.56;5047642;28;20217;-57
2022/07/23 05:43:00;;;;;;;11.52;8.90;;;;;;;21.35;66.33;94136.84;5047558;28;20268;-57
2022/07/23 05:45:44;;;;;;;6.20;5.40;;;;;;;21.35;66.03;94114.06;5042491;28;20267;-57
2022/07/23 05:48:28;;;;;;;5.72;5.13;;;;;;;21.27;66.53;94091.00;5046971;28;20220;-57
2022/07/23 05:51:27;;;;;;;8.43;5.57;;;;;;;21.41;65.40;94082.19;5049814;28;20252;-57
2022/07/23 05:54:11;;;;;;;8.77;6.07;;;;;;;21.65;64.76;94082.25;5044948;28;20284;-57
2022/07/23 05:56:56;;;;;;;5.53;5.13;;;;;;;21.59;67.55;94099.16;5049337;28;20201;-56
2022/07/23 05:59:41;;;;;;;9.77;6.20;;;;;;;21.63;68.08;94096.44;5046471;28;20201;-57
2022/07/23 06:02:24;;;;;;;7.20;6.30;;;;;;;21.77;66.78;94099.75;5045857;28;20295;-57
2022/07/23 06:05:09;;;;;;;10.43;6.93;;;;;;;21.67;67.56;94116.53;5047139;28;20256;-56
2022/07/23 06:07:54;;;;;;;7.13;6.43;;;;;;;21.33;68.48;94148.22;5047981;28;20683;-56
2022/07/23 06:10:38;;;;;;;7.10;6.00;;;;;;;21.33;68.88;94162.47;5040615;28;20233;-57
2022/07/23 06:13:23;;;;;;;6.18;5.57;;;;;;;21.44;68.01;94171.34;5046635;28;20737;-56
2022/07/23 06:16:08;;;;;;;8.17;5.40;;;;;;;21.38;67.46;94181.16;5047819;28;20291;-57
2022/07/23 06:18:52;;;;;;;7.28;5.57;;;;;;;21.66;67.38;94172.13;5045916;28;20801;-57
2022/07/23 06:21:37;;;;;;;6.40;5.80;;;;;;;21.93;66.58;94174.44;5047769;28;20225;-56
2022/07/23 06:24:21;;;;;;;6.77;6.03;;;;;;;21.81;67.32;94185.47;5049969;28;20206;-57
2022/07/23 06:27:07;;;;;;;6.67;5.50;;;;;;;22.01;65.75;94186.16;5051688;28;20237;-57
2022/07/23 06:29:53;;;;;;;5.88;5.28;;;;;;;22.05;66.14;94180.59;5054692;28;20426;-56
2022/07/23 06:32:36;;;;;;;7.17;5.23;;;;;;;22.18;66.09;94188.16;5039968;28;20252;-57
2022/07/23 06:35:21;;;;;;;5.50;5.00;;;;;;;22.36;64.72;94190.13;5048110;28;20247;-56
2022/07/23 06:38:04;;;;;;;7.30;5.65;;;;;;;22.48;63.31;94190.50;5057191;28;20201;-57
2022/07/23 06:40:48;;;;;;;8.15;5.45;;;;;;;22.27;62.43;94191.28;5040956;28;20582;-57
2022/07/23 06:43:32;;;;;;;7.45;4.45;;;;;;;22.50;62.48;94204.84;5044054;28;20281;-57
2022/07/23 06:46:16;;;;;;;5.80;5.25;;;;;;;22.77;62.02;94184.28;5047990;28;20202;-57
2022/07/23 06:49:00;;;;;;;6.40;5.35;;;;;;;22.84;61.43;94183.06;5045281;28;20208;-57
2022/07/23 06:51:46;;;;;;;5.47;5.00;;;;;;;22.70;60.93;94170.47;5042668;28;20217;-57
2022/07/23 06:54:30;;;;;;;6.20;5.60;;;;;;;22.77;61.56;94164.28;5050013;28;20252;-57
2022/07/23 06:57:14;;;;;;;10.02;5.35;;;;;;;22.81;61.17;94167.25;5030544;28;20292;-57
2022/07/23 06:59:58;;;;;;;6.72;6.05;;;;;;;22.59;61.76;94186.53;5049823;28;20278;-57
2022/07/23 07:02:43;;;;;;;7.13;5.50;;;;;;;22.43;61.50;94178.22;5040348;28;20241;-56
2022/07/23 07:05:27;;;;;;;6.07;5.40;;;;;;;22.57;61.96;94192.22;5050345;28;20205;-57
2022/07/23 07:08:11;;;;;;;5.88;5.28;;;;;;;22.55;62.14;94200.72;5041510;28;20229;-57
2022/07/23 07:10:55;;;;;;;5.22;4.78;;;;;;;22.56;62.09;94191.50;5044500;28;20605;-57
2022/07/23 07:13:39;;;;;;;6.55;5.05;;;;;;;22.49;62.85;94194.81;5051426;28;20224;-57
2022/07/23 07:16:23;;;;;;;6.60;6.00;;;;;;;22.29;62.83;94197.03;5040486;28;20248;-57
2022/07/23 07:19:07;;;;;;;5.72;5.22;;;;;;;22.30;63.25;94204.19;5051917;28;20237;-56
2022/07/23 07:21:51;;;;;;;6.97;5.60;;;;;;;22.52;62.75;94219.19;5047815;28;20264;-56
2022/07/23 07:24:35;;;;;;;7.05;6.25;;;;;;;22.76;62.02;94224.97;5044960;28;20204;-57
2022/07/23 07:27:19;;;;;;;6.35;5.75;;;;;;;22.80;61.63;94230.78;5053357;28;20197;-57
2022/07/23 07:30:05;;;;;;;5.38;4.88;;;;;;;22.67;62.03;94234.63;5049041;28;20248;-57
2022/07/23 07:32:49;;;;;;;6.90;6.00;;;;;;;22.70;62.10;94230.47;5049531;28;20269;-56
2022/07/23 07:35:33;;;;;;;5.85;5.28;;;;;;;22.43;62.58;94243.16;5051064;28;20201;-57
2022/07/23 07:38:17;;;;;;;6.10;5.53;;;;;;;22.37;62.75;94238.00;5052151;28;20260;-56
2022/07/23 07:41:01;;;;;;;6.18;5.57;;;;;;;22.55;62.74;94241.44;5046837;28;20200;-57
2022/07/23 07:43:46;;;;;;;5.85;5.35;;;;;;;22.77;61.64;94235.72;5046391;28;20198;-57
2022/07/23 07:46:30;;;;;;;5.25;4.75;;;;;;;23.18;59.26;94228.34;5047170;28;20948;-57
2022/07/23 07:49:17;;;;;;;5.88;5.22;;;;;;;23.54;58.41;94215.09;5044687;28;20210;-56
2022/07/23 07:52:00;;;;;;;6.60;5.18;;;;;;;24.10;57.27;94213.00;5046614;28;20198;-56
2022/07/23 07:54:44;;;;;;;5.63;4.95;;;;;;;24.39;56.35;94202.25;5041188;28;20752;-57
2022/07/23 07:57:28;;;;;;;5.25;4.85;;;;;;;24.64;54.89;94209.28;5039006;28;20202;-57
2022/07/23 08:00:12;;;;;;;6.18;4.38;;;;;;;25.10;54.47;94201.75;5045666;28;20206;-57
2022/07/23 08:02:57;;;;;;;4.65;4.18;;;;;;;25.18;53.30;94204.78;5049476;28;20699;-57
2022/07/23 08:05:41;;;;;;;8.75;4.20;;;;;;;24.81;54.25;94222.59;5041724;28;20585;-56
2022/07/23 08:08:25;;;;;;;7.35;4.65;;;;;;;24.82;54.56;94227.63;5052815;28;20282;-57
2022/07/23 08:11:09;;;;;;;4.68;4.28;;;;;;;24.83;54.27;94225.50;5050330;28;20212;-56
2022/07/23 08:13:52;;;;;;;4.78;4.38;;;;;;;25.24;53.36;94227.16;5042985;28;20288;-57
2022/07/23 08:16:37;;;;;;;4.95;4.55;;;;;;;25.43;52.92;94217.47;5047204;28;20206;-56
2022/07/23 08:19:21;;;;;;;8.23;4.70;;;;;;;25.68;52.35;94218.72;5048285;28;20491;-57
2022/07/23 08:22:05;;;;;;;6.00;4.72;;;;;;;25.80;52.09;94227.56;5046754;28;20213;-56
2022/07/23 08:24:49;;;;;;;5.50;4.93;;;;;;;25.90;51.17;94224.91;5040987;28;20205;-57
2022/07/23 08:27:33;;;;;;;4.65;4.15;;;;;;;25.70;52.31;94230.25;5039547;28;20598;-56
2022/07/23 08:30:18;;;;;;;5.15;4.65;;;;;;;25.84;52.01;94239.13;5043636;28;20201;-56
2022/07/23 08:33:06;;;;;;;5.10;4.60;;;;;;;25.57;52.26;94240.03;5046059;28;20725;-56
2022/07/23 08:35:52;;;;;;;4.95;4.47;;;;;;;25.79;52.24;94243.34;5042095;28;20201;-57
2022/07/23 08:38:36;;;;;;;5.28;4.78;;;;;;;25.80;52.16;94256.28;5048423;28;20671;-57
2022/07/23 08:41:20;;;;;;;5.10;4.70;;;;;;;25.68;52.75;94250.28;5048388;28;20753;-56
2022/07/23 08:44:07;;;;;;;6.22;5.00;;;;;;;25.55;53.23;94248.59;5044748;28;20237;-57
2022/07/23 08:46:52;;;;;;;5.18;4.47;;;;;;;25.59;51.77;94242.94;5046829;28;20317;-57
2022/07/23 08:49:37;;;;;;;5.90;4.65;;;;;;;25.72;52.04;94245.38;5048396;28;20216;-57
2022/07/23 08:52:22;;;;;;;5.97;5.20;;;;;;;25.86;53.48;94267.88;5038676;28;20817;-56
2022/07/23 08:55:08;;;;;;;5.97;5.38;;;;;;;26.49;52.25;94246.03;5051236;28;20805;-56
2022/07/23 08:57:53;;;;;;;5.88;4.88;;;;;;;27.00;50.78;94255.50;5048215;28;20285;-57
2022/07/23 09:00:37;;;;;;;5.50;4.97;;;;;;;27.11;50.16;94251.34;5041884;28;20288;-56
2022/07/23 09:03:32;;;;;;;5.95;5.05;;;;;;;26.84;50.85;94262.44;5042726;28;20225;-57
2022/07/23 09:06:17;;;;;;;5.40;4.90;;;;;;;26.77;50.87;94263.78;5047284;28;20201;-56
2022/07/23 09:09:16;;;;;;;5.40;4.97;;;;;;;26.28;52.48;94270.13;5044859;28;20285;-56
2022/07/23 09:12:09;;;;;;;4.60;4.20;;;;;;;26.52;50.40;94267.66;5045268;28;20236;-56
2022/07/23 09:14:52;;;;;;;6.15;5.13;;;;;;;26.44;50.68;94270.41;5047329;28;20214;-56
2022/07/23 09:17:39;;;;;;;6.40;4.82;;;;;;;27.32;49.89;94273.97;5046255;28;20206;-56
2022/07/23 09:20:23;;;;;;;5.70;5.00;;;;;;;27.71;49.10;94272.31;5046984;28;20220;-56
2022/07/23 09:23:07;;;;;;;5.85;5.20;;;;;;;27.56;49.16;94273.56;5048959;28;20335;-56
2022/07/23 09:25:51;;;;;;;5.47;4.97;;;;;;;28.60;47.25;94274.72;5044894;28;20205;-56
2022/07/23 09:29:06;;;;;;;4.93;4.32;;;;;;;28.58;45.67;94270.38;5048921;28;20208;-56
2022/07/23 09:31:52;;;;;;;4.90;4.40;;;;;;;28.16;46.58;94273.59;5040592;28;20324;-56
2022/07/23 09:34:39;;;;;;;5.28;4.65;;;;;;;28.82;45.85;94274.97;5047205;28;20233;-56
2022/07/23 09:37:23;;;;;;;6.93;4.00;;;;;;;29.68;43.79;94268.31;5052000;28;20224;-56
2022/07/23 09:40:10;;;;;;;6.00;4.60;;;;;;;29.99;42.93;94269.91;5049455;28;20741;-56
2022/07/23 09:42:57;;;;;;;12.43;4.60;;;;;;;30.39;42.63;94262.75;5039711;28;20229;-56
2022/07/23 09:45:40;;;;;;;4.65;3.90;;;;;;;30.77;41.27;94257.06;5044568;28;20267;-56
2022/07/23 09:48:24;;;;;;;5.15;3.95;;;;;;;31.43;40.66;94255.53;5045196;28;20709;-56
2022/07/23 09:51:08;;;;;;;4.20;3.83;;;;;;;30.52;40.72;94264.25;5048477;28;20193;-56
2022/07/23 09:53:52;;;;;;;4.80;4.28;;;;;;;29.87;42.01;94261.16;5042564;28;20725;-56
2022/07/23 09:56:37;;;;;;;4.25;3.95;;;;;;;29.60;43.27;94266.09;5050801;28;20256;-56
2022/07/23 09:59:30;;;;;;;4.05;3.58;;;;;;;29.50;42.71;94268.22;5050310;28;20205;-56
2022/07/23 10:02:15;;;;;;;5.03;4.22;;;;;;;29.46;43.77;94273.94;5044675;28;20275;-56
2022/07/23 10:05:25;;;;;;;4.22;3.92;;;;;;;28.87;45.37;94277.16;5043970;28;20255;-56
2022/07/23 10:08:25;;;;;;;5.10;4.57;;;;;;;29.06;45.85;94280.19;5043237;28;20252;-56
2022/07/23 10:11:14;;;;;;;5.57;5.10;;;;;;;29.74;44.53;94285.66;5045843;28;20588;-56
2022/07/23 10:14:10;;;;;;;5.35;4.72;;;;;;;29.70;44.48;94280.56;5041110;28;20623;-56
2022/07/23 10:17:24;;;;;;;5.32;4.40;;;;;;;29.65;44.67;94284.16;5047114;28;20197;-56
2022/07/23 10:20:08;;;;;;;5.05;4.55;;;;;;;30.07;42.74;94284.38;5047533;28;20577;-56
2022/07/23 10:22:55;;;;;;;5.57;4.95;;;;;;;29.79;43.17;94275.56;5046655;28;20729;-56
2022/07/23 10:25:39;;;;;;;5.03;4.60;;;;;;;30.60;42.47;94264.28;5037622;28;20613;-56
2022/07/23 10:28:38;;;;;;;4.57;4.28;;;;;;;30.79;41.76;94262.13;5048853;28;20198;-56
2022/07/23 10:31:42;;;;;;;4.85;4.18;;;;;;;29.17;42.10;94267.25;5043720;28;20245;-56
2022/07/23 10:34:25;;;;;;;5.15;3.95;;;;;;;29.27;42.97;94267.31;5047575;28;20242;-56
2022/07/23 10:37:25;;;;;;;5.45;4.90;;;;;;;29.23;42.82;94270.19;5059643;28;20201;-56
2022/07/23 10:40:13;;;;;;;6.47;4.55;;;;;;;29.31;42.83;94265.19;5046581;28;20240;-56
2022/07/23 10:43:00;;;;;;;4.75;4.32;;;;;;;29.04;43.43;94265.72;5047142;28;20221;-56
2022/07/23 10:45:45;;;;;;;5.13;4.25;;;;;;;29.42;42.99;94268.16;5043624;28;20194;-56
2022/07/23 10:48:29;;;;;;;5.88;5.20;;;;;;;29.09;43.96;94265.03;5038308;28;20213;-57
2022/07/23 10:51:15;;;;;;;5.07;4.60;;;;;;;28.41;44.58;94257.25;5048054;28;20251;-56
2022/07/23 10:54:00;;;;;;;4.75;4.15;;;;;;;29.15;43.09;94250.66;5046429;28;20197;-56
2022/07/23 10:56:57;;;;;;;5.25;4.63;;;;;;;28.33;44.57;94254.28;5049812;28;20556;-56
2022/07/23 11:02:52;;;;;;;5.28;4.57;;;;;;;28.03;45.01;94248.19;5048492;28;20260;-56
2022/07/23 11:05:43;;;;;;;5.60;4.18;;;;;;;26.95;45.79;94243.94;5038908;28;20205;-56
2022/07/23 11:08:27;;;;;;;6.95;4.63;;;;;;;26.69;46.28;94239.91;5048035;28;20685;-56
2022/07/23 11:11:11;;;;;;;5.32;4.18;;;;;;;26.19;46.86;94241.22;5051207;28;20318;-56
2022/07/23 11:13:56;;;;;;;7.15;4.60;;;;;;;25.96;48.23;94239.38;5046235;28;20198;-56
2022/07/23 11:16:48;;;;;;;6.30;4.47;;;;;;;26.09;48.61;94231.69;5051906;28;20209;-56
2022/07/23 11:20:11;;;;;;;4.40;3.97;;;;;;;26.34;48.43;94224.25;5050375;28;20221;-56
2022/07/23 11:22:57;;;;;;;4.88;4.15;;;;;;;26.64;47.73;94233.38;5045388;28;20288;-56
2022/07/23 11:25:44;;;;;;;4.90;4.50;;;;;;;26.45;47.85;94235.22;5052853;28;20241;-56
2022/07/23 11:28:28;;;;;;;4.50;4.10;;;;;;;26.10;48.99;94248.25;5051581;28;20198;-56
2022/07/23 11:31:18;;;;;;;5.40;4.85;;;;;;;26.59;48.29;94249.09;5049762;28;20209;-57
2022/07/23 11:34:38;;;;;;;5.85;4.45;;;;;;;27.12;46.76;94244.16;5052820;28;20201;-56
2022/07/23 11:37:35;;;;;;;6.05;4.18;;;;;;;26.82;47.34;94250.19;5042149;28;20284;-56
2022/07/23 11:40:19;;;;;;;5.18;4.30;;;;;;;26.89;47.05;94252.47;5050694;28;20807;-56
2022/07/23 11:43:09;;;;;;;8.32;4.43;;;;;;;26.38;47.60;94253.78;5051794;28;20232;-56
2022/07/23 11:45:58;;;;;;;6.45;4.30;;;;;;;26.51;47.39;94243.22;5051583;28;20521;-56
2022/07/23 11:48:42;;;;;;;6.90;3.92;;;;;;;26.38;47.78;94247.31;5037045;28;20204;-56
2022/07/23 11:51:26;;;;;;;4.55;4.15;;;;;;;26.12;48.55;94245.41;5044905;28;20281;-56
2022/07/23 11:54:10;;;;;;;6.63;3.92;;;;;;;26.48;48.51;94241.72;5050655;28;20721;-56
2022/07/23 11:56:58;;;;;;;6.05;3.90;;;;;;;26.87;47.54;94243.78;5052609;28;20679;-56
2022/07/23 11:59:43;;;;;;;5.03;3.72;;;;;;;26.82;46.78;94236.53;5047381;28;20227;-56
2022/07/23 12:02:28;;;;;;;4.22;3.67;;;;;;;26.69;46.66;94232.00;5050949;28;20276;-56
2022/07/23 12:05:14;;;;;;;4.30;3.90;;;;;;;27.09;46.13;94234.06;5048725;28;20209;-56
2022/07/23 12:08:00;;;;;;;5.18;3.67;;;;;;;27.12;46.09;94229.78;5051201;28;20205;-56
2022/07/23 12:10:44;;;;;;;4.20;3.80;;;;;;;26.88;46.11;94225.13;5043663;28;20210;-56
2022/07/23 12:13:28;;;;;;;6.55;3.90;;;;;;;27.43;45.92;94220.13;5044311;28;20260;-56
2022/07/23 12:16:12;;;;;;;4.47;4.00;;;;;;;27.24;45.39;94224.19;5050504;28;20252;-56
2022/07/23 12:18:56;;;;;;;4.25;3.85;;;;;;;27.54;45.58;94218.13;5048921;28;20209;-56
2022/07/23 12:21:41;;;;;;;4.35;3.83;;;;;;;27.40;45.09;94215.78;5042697;28;20659;-56
2022/07/23 12:24:25;;;;;;;3.50;3.20;;;;;;;27.56;45.24;94221.75;5049537;28;20201;-56
2022/07/23 12:27:11;;;;;;;6.35;3.42;;;;;;;27.88;44.80;94220.69;5047549;28;20207;-56
2022/07/23 12:29:55;;;;;;;3.83;3.42;;;;;;;28.21;43.99;94228.22;5044442;28;20202;-56
2022/07/23 12:32:44;;;;;;;5.55;3.58;;;;;;;28.41;43.61;94225.53;5047701;28;20201;-56
2022/07/23 12:35:37;;;;;;;5.20;3.28;;;;;;;28.73;43.15;94219.31;5046657;28;20591;-56
2022/07/23 12:38:23;;;;;;;5.03;3.85;;;;;;;28.77;43.23;94222.25;5046268;28;20241;-56
2022/07/23 12:41:08;;;;;;;4.10;3.70;;;;;;;28.20;44.74;94223.19;5050915;28;20201;-56
2022/07/23 12:43:52;;;;;;;5.68;3.47;;;;;;;28.10;45.09;94223.78;5043706;28;20352;-56
2022/07/23 12:46:35;;;;;;;5.80;3.53;;;;;;;28.31;44.38;94219.69;5050475;28;20288;-56
2022/07/23 12:49:38;;;;;;;5.13;3.72;;;;;;;27.88;44.70;94214.91;5039784;28;20236;-56
2022/07/23 12:52:22;;;;;;;11.98;10.00;;;;;;;28.22;44.42;94229.69;5050260;28;20193;-56
2022/07/23 12:55:06;;;;;;;12.00;10.02;;;;;;;28.91;43.43;94221.63;5040178;28;20252;-56
2022/07/23 12:57:50;;;;;;;17.00;15.23;;;;;;;28.71;44.04;94230.09;5045515;28;20201;-56
2022/07/23 13:00:57;;;;;;;5.32;4.75;;;;;;;27.56;45.88;94233.28;5044409;28;20205;-56
2022/07/23 13:03:42;;;;;;;4.53;4.10;;;;;;;27.42;45.66;94227.31;5040290;28;20279;-56